Terminal Aerodrome Forecast
Issued by NWS

Home | Current Version | Previous Version | Text Only | Print | Product List | Glossary On
Versions: 1 2 3 4 5 6 7 8 9 10 11 12 13 14 15 16 17 18 19 20 21 22 23 24 25 26 27 28 29 30 31 32 33 34
741
FTUS44 KMOB 240528
TAFBFM
TAF
KBFM 240528Z 2406/2506 13003KT P6SM SCT030
     FM241500 VRB05KT P6SM VCSH BKN030 BKN250
     FM241800 15005KT P6SM VCSH SCT030 PROB30 2420/2424 4SM TSRA
      BKN025CB
     FM250000 20005KT P6SM VCTS FEW030CB BKN200
     FM250300 VRB03KT P6SM SCT200=

USA.gov is the U.S. government's official web portal to all federal, state and local government web resources and services.